Weather observations for the past three days for
San Diego, Montgomery Field
Imperial (Metric)
Date Time (pdt) Wind (mph) Vis. (mi.) Weather Sky Cond. Temperature (ºF) Relative Humidity Wind Chill (°F) Heat Index (°F) Pressure Precipitation (in)
Air Dwpt 6 hour altimeter (in) sea level (mb) 1 hr 3 hr 6 hr
Max. Min.
09 14:53 W 8 10.00 Fair CLR 70 55.9 61% 29.91 1012.3
09 13:53 SW 9 10.00 Fair CLR 69.1 55 61% 29.92 1012.8
09 12:53 SW 9 10.00 Fair CLR 71.1 55.9 59% 29.92 1012.9
09 11:53 SW 8 10.00 Fair CLR 70 55.9 61% 29.93 1013.0
09 10:53 W 7 10.00 Fair CLR 70 57 70 61 64% 29.94 1013.3
09 09:53 Vrbl 3 10.00 Fair CLR 68 57 68% 29.94 1013.3
09 08:53 W 5 9.00 Overcast OVC014 64 57 78% 29.94 1013.6
09 07:53 S 3 7.00 Overcast OVC012 62.1 55.9 80% 29.94 1013.6
09 06:53 Calm 7.00 Overcast OVC010 61 57 87% 29.94 1013.4
09 05:53 W 5 8.00 Overcast OVC009 61 57 87% 29.93 1013.2
09 04:53 SW 3 8.00 Overcast OVC009 61 57 62.1 61 87% 29.93 1013.0
09 03:53 SW 5 8.00 Overcast OVC008 61 57 87% 29.93 1013.1
09 02:53 Calm 8.00 Overcast OVC008 62.1 57.9 86% 29.93 1013.2
09 01:53 SE 3 9.00 Overcast OVC010 62.1 57.9 86% 29.95 1013.7
09 00:53 Calm 9.00 Overcast OVC010 62.1 57.9 86% 29.96 1014.0
08 23:53 Calm 10.00 Overcast OVC010 62.1 57.9 86% 29.97 1014.5
08 22:53 Calm 10.00 Overcast OVC009 62.1 57.9 69.1 62.1 86% 29.97 1014.6
08 21:53 W 3 10.00 Overcast OVC009 62.1 57.9 86% 29.98 1014.7
08 20:53 NW 5 10.00 Overcast OVC009 62.1 57.9 86% 29.96 1014.4
08 19:53 W 7 10.00 A Few Clouds FEW015 63 57.9 84% 29.95 1013.9
08 18:53 W 8 10.00 Fair CLR 66 57.9 75% 29.94 1013.3
08 17:53 W 7 10.00 Fair CLR 69.1 57.9 68% 29.94 1013.3
08 16:53 NW 9 10.00 Fair CLR 69.1 57.9 73 68 68% 29.94 1013.5
08 15:53 SW 12 10.00 Fair CLR 71.1 57 61% 29.95 1013.8
08 14:53 SW 13 10.00 Fair CLR 69.1 57 66% 29.96 1014.2
08 13:53 SW 10 10.00 Fair CLR 71.1 57.9 63% 29.96 1014.3
08 12:53 SW 9 10.00 Fair CLR 71.1 57.9 63% 29.97 1014.6
08 11:53 Calm 10.00 Fair CLR 71.1 57 61% 29.99 1015.2
08 10:53 SW 3 8.00 Fair CLR 68 55.9 68 60.1 65% 30.01 1015.7
08 09:53 W 5 8.00 Overcast OVC016 64.9 55.9 73% 30.02 1016.2
08 08:53 Calm 7.00 Overcast OVC012 62.1 55.9 80% 30.02 1016.4
08 07:53 Calm 6.00 Overcast with Haze OVC011 61 55.9 84% 30.02 1016.4
08 06:53 S 3 6.00 Overcast with Haze OVC009 61 55.9 84% 30.01 1016.0
08 05:53 S 3 7.00 Overcast OVC009 61 55.9 84% 30 1015.6
08 04:53 Calm 6.00 Fog/Mist OVC009 60.1 55.9 62.1 60.1 86% 30 1015.4
08 03:53 SE 3 6.00 Overcast with Haze OVC009 61 55.9 84% 30 1015.4
08 02:53 SW 3 7.00 Overcast OVC008 61 57 87% 30 1015.7
08 01:53 Vrbl 3 9.00 Overcast OVC009 61 57 87% 30 1015.7
08 00:53 Vrbl 5 9.00 Overcast OVC010 61 57 87% 30.02 1016.1
07 23:53 S 5 9.00 Overcast OVC010 61 57 87% 30.03 1016.4
07 22:53 SW 5 10.00 Overcast OVC011 62.1 55.9 69.1 61 80% 30.03 1016.5
07 21:53 S 3 10.00 Overcast OVC011 61 55.9 84% 30.03 1016.5
07 20:53 SW 6 10.00 Fair CLR 62.1 55.9 80% 30 1015.8
07 19:53 W 7 10.00 Fair CLR 63 55.9 78% 29.98 1015.0
07 18:53 SW 8 10.00 Fair CLR 64.9 55.9 73% 29.97 1014.4
07 17:53 W 8 10.00 Fair CLR 66 55.9 70% 29.96 1014.3
07 16:53 SW 9 10.00 Fair CLR 68 55.9 70 66.9 65% 29.96 1014.4
07 15:53 W 10 10.00 Fair CLR 69.1 55.9 63% 29.97 1014.4
07 14:53 W 8 10.00 Fair CLR 69.1 55.9 63% 29.98 1014.8
07 13:53 W 10 G 17 10.00 Fair CLR 69.1 55.9 63% 29.99 1015.3
07 12:53 SW 13 G 20 10.00 Fair CLR 69.1 55.9 63% 30 1015.4
07 11:53 SW 12 10.00 Fair CLR 69.1 55.9 63% 30.01 1015.7
07 10:53 Vrbl 5 10.00 A Few Clouds FEW015 68 55.9 68 55.9 65% 30.02 1016.1
07 09:53 NW 5 10.00 Mostly Cloudy BKN015 64 55 73% 30.03 1016.6
07 08:53 W 3 10.00 Overcast OVC012 61 55 81% 30.04 1016.9
07 07:53 Calm 10.00 Overcast OVC010 60.1 55 84% 30.03 1016.7
07 06:53 Calm 10.00 Overcast OVC010 59 55 87% 30.02 1016.3
07 05:53 Calm 10.00 Partly Cloudy SCT010 57 54 90% 30.01 1016.1
07 04:53 Calm 10.00 A Few Clouds FEW010 55.9 53.1 61 55.9 90% 30.01 1015.9
07 03:53 Calm 10.00 Fair CLR 57 54 90% 30.01 1016.0
07 02:53 Calm 10.00 Fair CLR 57.9 54 87% 30.02 1016.3
07 01:53 Calm 10.00 Partly Cloudy SCT011 57 55 93% 30.03 1016.8
07 00:53 N 3 10.00 Fair CLR 59 55 87% 30.05 1017.1
06 23:53 Calm 10.00 Fair CLR 60.1 55.9 86% 30.05 1017.4
06 22:53 NW 5 10.00 Fair CLR 61 55.9 68 61 84% 30.06 0.0
06 21:53 NW 5 10.00 Fair CLR 61 55.9 84% 30.05 0.0
06 20:53 NW 7 10.00 Fair CLR 62.1 55 78% 30.05 1017.2
06 19:53 NW 8 10.00 Fair CLR 62.1 55 78% 30.03 1016.6
06 18:53 NW 8 10.00 Fair CLR 64 55 73% 30.02 1016.3
06 17:53 W 12 10.00 Fair CLR 66 53.1 63% 30.02 1016.2
06 16:53 NW 10 10.00 Fair CLR 66.9 52 59% 30.01 1015.9
06 15:53 NW 14 10.00 A Few Clouds FEW030 69.1 54 59% 30.01 1016.1
Date Time (pdt) Wind (mph) Vis. (mi.) Weather Sky Cond. Air Dwpt Max. Min. Relative Humidity Wind Chill (°F) Heat Index (°F) altimeter (in) sea level (mb) 1 hr 3 hr 6 hr
6 hour
Temperature (ºF) Pressure Precipitation (in)